createdAt,value
2023-03-16T00:00:47.529Z,3.82
2023-03-16T00:01:47.574Z,3.89
2023-03-16T00:02:47.555Z,4.00
2023-03-16T00:03:47.575Z,4.07
2023-03-16T00:04:47.584Z,3.96
2023-03-16T00:05:47.586Z,3.88
2023-03-16T00:06:47.618Z,3.94
2023-03-16T00:07:47.608Z,3.76
2023-03-16T00:08:47.609Z,3.66
2023-03-16T00:09:47.612Z,3.81
2023-03-16T00:10:47.607Z,4.03
2023-03-16T00:11:47.597Z,3.96
2023-03-16T00:12:47.607Z,3.96
2023-03-16T00:13:47.600Z,4.09
2023-03-16T00:14:47.608Z,4.18
2023-03-16T00:15:47.617Z,4.18
2023-03-16T00:16:47.682Z,4.27
2023-03-16T00:17:47.629Z,4.30
2023-03-16T00:18:47.641Z,4.32
2023-03-16T00:19:47.641Z,4.43
2023-03-16T00:20:47.640Z,4.34
2023-03-16T00:21:47.640Z,4.43
2023-03-16T00:22:47.660Z,4.28
2023-03-16T00:23:47.670Z,4.28
2023-03-16T00:24:47.675Z,4.45
2023-03-16T00:25:47.680Z,4.52
2023-03-16T00:26:47.679Z,4.49
2023-03-16T00:27:47.730Z,4.45
2023-03-16T00:28:47.752Z,4.61
2023-03-16T00:29:47.758Z,4.52
2023-03-16T00:30:47.758Z,4.49
2023-03-16T00:31:47.779Z,4.66
2023-03-16T00:32:47.864Z,4.71
2023-03-16T00:33:47.828Z,4.67
2023-03-16T00:34:47.827Z,4.53
2023-03-16T00:35:47.865Z,4.43
2023-03-16T00:36:47.878Z,4.57
2023-03-16T00:37:47.923Z,4.61
2023-03-16T00:38:47.866Z,4.84
2023-03-16T00:39:47.876Z,4.89
2023-03-16T00:40:47.878Z,4.90
2023-03-16T00:41:47.880Z,4.68
2023-03-16T00:42:47.887Z,4.60
2023-03-16T00:43:47.882Z,4.53
2023-03-16T00:44:47.886Z,4.67
2023-03-16T00:45:47.954Z,4.56
2023-03-16T00:46:47.884Z,4.66
2023-03-16T00:47:47.893Z,4.76
2023-03-16T00:48:47.910Z,4.70
2023-03-16T00:49:47.905Z,4.68
2023-03-16T00:50:47.930Z,4.60
2023-03-16T00:51:47.935Z,4.84
2023-03-16T00:52:47.936Z,4.84
2023-03-16T00:53:47.937Z,4.86
2023-03-16T00:54:47.921Z,4.84
2023-03-16T00:55:47.917Z,4.68
2023-03-16T00:56:47.935Z,4.64
2023-03-16T00:57:47.966Z,4.67
2023-03-16T00:58:47.970Z,4.53
2023-03-16T00:59:47.965Z,4.49
2023-03-16T01:00:48.015Z,4.63
2023-03-16T01:01:47.966Z,4.57
2023-03-16T01:02:47.994Z,4.42
2023-03-16T01:03:48.016Z,4.43
2023-03-16T01:04:48.017Z,4.57
2023-03-16T01:05:48.016Z,4.50
2023-03-16T01:06:48.037Z,4.52
2023-03-16T01:07:48.050Z,4.56
2023-03-16T01:08:48.047Z,4.46
2023-03-16T01:09:48.050Z,4.16
2023-03-16T01:10:48.058Z,4.20
2023-03-16T01:11:48.070Z,4.22
2023-03-16T01:12:48.088Z,4.46
2023-03-16T01:13:48.107Z,4.28
2023-03-16T01:14:48.141Z,4.30
2023-03-16T01:15:48.143Z,4.50
2023-03-16T01:16:48.192Z,4.36
2023-03-16T01:17:48.192Z,4.45
2023-03-16T01:18:48.201Z,4.32
2023-03-16T01:19:48.210Z,4.36
2023-03-16T01:20:48.200Z,4.36
2023-03-16T01:21:48.211Z,4.38
2023-03-16T01:22:48.231Z,4.39
2023-03-16T01:23:48.255Z,4.49
2023-03-16T01:24:48.270Z,4.61
2023-03-16T01:25:48.267Z,4.50
2023-03-16T01:26:48.270Z,4.58
2023-03-16T01:27:48.291Z,4.57
2023-03-16T01:28:48.298Z,4.60
2023-03-16T01:29:48.302Z,4.49
2023-03-16T01:30:48.317Z,4.50
2023-03-16T01:31:48.320Z,4.67
2023-03-16T01:32:48.394Z,4.63
2023-03-16T01:33:48.332Z,4.60
2023-03-16T01:34:48.342Z,4.66
2023-03-16T01:35:48.361Z,4.57
2023-03-16T01:36:48.376Z,4.42
2023-03-16T01:37:48.383Z,4.53
2023-03-16T01:38:48.393Z,4.66
2023-03-16T01:39:48.403Z,4.56
2023-03-16T01:40:48.407Z,4.25
2023-03-16T01:41:48.420Z,4.42
2023-03-16T01:42:48.424Z,4.48
2023-03-16T01:43:48.424Z,4.38
2023-03-16T01:44:48.436Z,4.31
2023-03-16T01:45:48.485Z,4.38
2023-03-16T01:46:48.504Z,4.46
2023-03-16T01:47:48.505Z,4.42
2023-03-16T01:48:48.505Z,4.40
2023-03-16T01:49:48.529Z,4.34
2023-03-16T01:50:48.535Z,4.34
2023-03-16T01:51:48.537Z,4.45
2023-03-16T01:52:48.545Z,4.46
2023-03-16T01:53:48.547Z,4.40
2023-03-16T01:54:48.555Z,4.38
2023-03-16T01:55:48.570Z,4.45
2023-03-16T01:56:48.577Z,4.39
2023-03-16T01:57:48.596Z,4.32
2023-03-16T01:58:48.590Z,4.32
2023-03-16T01:59:48.586Z,4.21
2023-03-16T02:00:48.597Z,4.32
2023-03-16T02:01:48.684Z,4.12
2023-03-16T02:02:48.608Z,3.91
2023-03-16T02:03:48.596Z,3.95
2023-03-16T02:04:48.679Z,4.14
2023-03-16T02:05:48.695Z,4.02
2023-03-16T02:06:48.677Z,4.04
2023-03-16T02:07:48.677Z,3.99
2023-03-16T02:08:48.668Z,3.92
2023-03-16T02:09:48.657Z,3.92
2023-03-16T02:10:48.679Z,3.85
2023-03-16T02:11:48.684Z,3.84
2023-03-16T02:12:48.679Z,3.88
2023-03-16T02:13:48.671Z,3.85
2023-03-16T02:14:48.671Z,3.92
2023-03-16T02:15:48.707Z,4.06
2023-03-16T02:16:48.710Z,4.00
2023-03-16T02:17:48.753Z,3.78
2023-03-16T02:18:48.749Z,3.81
2023-03-16T02:19:48.763Z,3.81
2023-03-16T02:20:48.806Z,3.94
2023-03-16T02:21:48.800Z,4.04
2023-03-16T02:22:48.812Z,3.92
2023-03-16T02:23:48.811Z,4.10
2023-03-16T02:24:48.810Z,3.92
2023-03-16T02:25:48.811Z,3.88
2023-03-16T02:26:48.826Z,3.92
2023-03-16T02:27:48.824Z,3.92
2023-03-16T02:28:48.828Z,4.00
2023-03-16T02:29:48.822Z,4.14
2023-03-16T02:30:48.927Z,4.12
2023-03-16T02:31:53.792Z,4.16
2023-03-16T02:32:49.049Z,4.10
2023-03-16T02:33:48.941Z,4.16
2023-03-16T02:34:48.943Z,4.04
2023-03-16T02:35:48.983Z,3.82
2023-03-16T02:36:48.936Z,3.86
2023-03-16T02:37:48.927Z,3.81
2023-03-16T02:38:48.913Z,4.03
2023-03-16T02:39:48.910Z,4.09
2023-03-16T02:40:48.903Z,3.85
2023-03-16T02:41:48.914Z,3.91
2023-03-16T02:42:48.905Z,4.02
2023-03-16T02:43:48.935Z,3.85
2023-03-16T02:44:48.922Z,3.96
2023-03-16T02:45:48.924Z,3.85
2023-03-16T02:46:49.007Z,3.77
2023-03-16T02:47:48.953Z,3.66
2023-03-16T02:48:48.957Z,3.78
2023-03-16T02:49:48.944Z,3.88
2023-03-16T02:50:48.960Z,3.84
2023-03-16T02:51:48.984Z,3.78
2023-03-16T02:52:48.984Z,3.67
2023-03-16T02:53:48.988Z,3.70
2023-03-16T02:54:49.013Z,3.61
2023-03-16T02:55:49.005Z,3.74
2023-03-16T02:56:49.035Z,3.76
2023-03-16T02:57:49.042Z,3.67
2023-03-16T02:58:49.033Z,3.82
2023-03-16T02:59:49.034Z,3.64
2023-03-16T03:00:49.031Z,3.73
2023-03-16T03:01:49.084Z,3.74
2023-03-16T03:02:49.153Z,3.74
2023-03-16T03:03:49.105Z,3.64
2023-03-16T03:04:49.095Z,3.63
2023-03-16T03:05:49.147Z,3.66
2023-03-16T03:06:49.146Z,3.59
2023-03-16T03:07:49.192Z,3.58
2023-03-16T03:08:49.189Z,3.67
2023-03-16T03:09:49.191Z,3.76
2023-03-16T03:10:49.184Z,3.88
2023-03-16T03:11:49.175Z,3.66
2023-03-16T03:12:49.186Z,3.68
2023-03-16T03:13:49.192Z,3.73
2023-03-16T03:14:49.179Z,3.73
2023-03-16T03:15:49.189Z,3.81
2023-03-16T03:16:49.226Z,3.66
2023-03-16T03:17:49.261Z,3.55
2023-03-16T03:18:49.283Z,3.45
2023-03-16T03:19:49.337Z,3.58
2023-03-16T03:20:49.346Z,3.63
2023-03-16T03:21:49.398Z,3.50
2023-03-16T03:22:49.422Z,3.58
2023-03-16T03:23:49.439Z,3.64
2023-03-16T03:24:49.469Z,3.64
2023-03-16T03:25:49.484Z,3.63
2023-03-16T03:26:50.200Z,3.61
2023-03-16T03:27:49.615Z,3.58
2023-03-16T03:28:49.631Z,3.70
2023-03-16T03:29:49.697Z,3.71
2023-03-16T03:30:49.710Z,3.53
2023-03-16T03:31:49.752Z,3.66
2023-03-16T03:32:49.784Z,3.66
2023-03-16T03:33:49.761Z,3.53
2023-03-16T03:34:49.751Z,3.59
2023-03-16T03:35:49.817Z,3.64
2023-03-16T03:36:49.750Z,3.77
2023-03-16T03:37:49.772Z,3.71
2023-03-16T03:38:49.762Z,3.81
2023-03-16T03:39:49.756Z,3.76
2023-03-16T03:40:49.752Z,3.70
2023-03-16T03:41:49.752Z,3.59
2023-03-16T03:42:49.762Z,3.76
2023-03-16T03:43:49.762Z,3.76
2023-03-16T03:44:49.770Z,3.76
2023-03-16T03:45:49.830Z,3.81
2023-03-16T03:46:49.881Z,3.76
2023-03-16T03:47:49.845Z,3.49
2023-03-16T03:48:49.854Z,3.49
2023-03-16T03:49:49.896Z,3.43
2023-03-16T03:50:49.895Z,3.48
2023-03-16T03:51:49.903Z,3.64
2023-03-16T03:52:49.946Z,3.58
2023-03-16T03:53:49.954Z,3.68
2023-03-16T03:54:49.953Z,3.70
2023-03-16T03:55:49.952Z,3.52
2023-03-16T03:56:49.964Z,3.52
2023-03-16T03:57:49.954Z,3.45
2023-03-16T03:58:49.960Z,3.48
2023-03-16T03:59:50.013Z,3.37
2023-03-16T04:00:50.004Z,3.41
2023-03-16T04:01:50.122Z,3.24
2023-03-16T04:02:50.219Z,3.22
2023-03-16T04:03:50.124Z,3.40
2023-03-16T04:04:50.164Z,3.37
2023-03-16T04:05:50.164Z,3.46
2023-03-16T04:06:50.173Z,3.56
2023-03-16T04:07:50.172Z,3.50
2023-03-16T04:08:50.179Z,3.48
2023-03-16T04:09:50.218Z,3.53
2023-03-16T04:10:50.210Z,3.74
2023-03-16T04:11:50.205Z,3.55
2023-03-16T04:12:50.251Z,3.41
2023-03-16T04:13:50.255Z,3.36
2023-03-16T04:14:50.307Z,3.37
2023-03-16T04:15:50.315Z,3.36
2023-03-16T04:16:50.469Z,3.41
2023-03-16T04:17:50.384Z,3.48
2023-03-16T04:18:50.374Z,3.48
2023-03-16T04:19:50.409Z,3.40
2023-03-16T04:20:50.434Z,3.33
2023-03-16T04:21:50.415Z,3.50
2023-03-16T04:22:50.416Z,3.56
2023-03-16T04:23:50.405Z,3.58
2023-03-16T04:24:50.435Z,3.58
2023-03-16T04:25:50.467Z,3.68
2023-03-16T04:26:50.509Z,3.63
2023-03-16T04:27:50.530Z,3.67
2023-03-16T04:28:50.568Z,3.52
2023-03-16T04:29:50.577Z,3.55
2023-03-16T04:30:50.672Z,3.66
2023-03-16T04:31:50.585Z,3.49
2023-03-16T04:32:50.630Z,3.31
2023-03-16T04:33:50.638Z,3.29
2023-03-16T04:34:50.691Z,3.21
2023-03-16T04:35:50.721Z,3.49
2023-03-16T04:36:50.719Z,3.67
2023-03-16T04:37:50.755Z,3.58
2023-03-16T04:38:50.764Z,3.67
2023-03-16T04:39:50.759Z,3.71
2023-03-16T04:40:50.802Z,3.67
2023-03-16T04:41:50.820Z,3.68
2023-03-16T04:42:50.814Z,3.61
2023-03-16T04:43:50.823Z,3.76
2023-03-16T04:44:50.818Z,3.67
2023-03-16T04:45:50.856Z,3.63
2023-03-16T04:46:50.865Z,3.88
2023-03-16T04:47:50.877Z,3.86
2023-03-16T04:48:50.906Z,3.66
2023-03-16T04:49:50.911Z,3.73
2023-03-16T04:50:50.901Z,3.86
2023-03-16T04:51:50.914Z,3.71
2023-03-16T04:52:50.914Z,3.85
2023-03-16T04:53:50.924Z,3.89
2023-03-16T04:54:50.933Z,3.86
2023-03-16T04:55:50.970Z,3.86
2023-03-16T04:56:51.004Z,3.77
2023-03-16T04:57:51.012Z,3.88
2023-03-16T04:58:51.030Z,3.78
2023-03-16T04:59:51.054Z,3.82
2023-03-16T05:00:51.076Z,3.86
2023-03-16T05:01:51.118Z,3.52
2023-03-16T05:02:51.115Z,3.68
2023-03-16T05:03:51.113Z,3.73
2023-03-16T05:04:51.196Z,3.85
2023-03-16T05:05:51.266Z,4.06
2023-03-16T05:06:51.207Z,3.92
2023-03-16T05:07:51.216Z,3.94
2023-03-16T05:08:51.233Z,3.84
2023-03-16T05:09:51.283Z,3.77
2023-03-16T05:10:51.376Z,3.73
2023-03-16T05:11:51.386Z,3.70
2023-03-16T05:12:51.374Z,4.06
2023-03-16T05:13:51.445Z,3.89
2023-03-16T05:14:51.464Z,3.96
2023-03-16T05:15:51.518Z,4.09
2023-03-16T05:16:51.557Z,4.22
2023-03-16T05:17:51.596Z,3.89
2023-03-16T05:18:51.628Z,3.96
2023-03-16T05:19:51.616Z,3.84
2023-03-16T05:20:51.624Z,3.81
2023-03-16T05:21:51.658Z,3.86
2023-03-16T05:22:51.765Z,3.76
2023-03-16T05:23:51.741Z,3.81
2023-03-16T05:24:51.770Z,3.82
2023-03-16T05:25:51.851Z,3.78
2023-03-16T05:26:51.817Z,3.78
2023-03-16T05:27:51.858Z,3.86
2023-03-16T05:28:51.828Z,3.68
2023-03-16T05:29:51.829Z,3.73
2023-03-16T05:30:51.963Z,3.77
2023-03-16T05:31:51.924Z,3.64
2023-03-16T05:32:52.032Z,3.59
2023-03-16T05:33:52.041Z,4.02
2023-03-16T05:34:52.000Z,3.84
2023-03-16T05:35:52.039Z,3.92
2023-03-16T05:36:52.038Z,3.84
2023-03-16T05:37:52.031Z,3.86
2023-03-16T05:38:52.060Z,3.91
2023-03-16T05:39:52.104Z,3.84
2023-03-16T05:40:52.166Z,3.82
2023-03-16T05:41:52.170Z,3.66
2023-03-16T05:42:52.192Z,3.84
2023-03-16T05:43:52.189Z,3.55
2023-03-16T05:44:52.250Z,3.77
2023-03-16T05:45:52.259Z,3.77
2023-03-16T05:46:52.321Z,3.89
2023-03-16T05:47:52.302Z,4.21
2023-03-16T05:48:52.324Z,4.02
2023-03-16T05:49:52.353Z,3.84
2023-03-16T05:50:52.366Z,3.86
2023-03-16T05:51:52.444Z,3.92
2023-03-16T05:52:52.431Z,4.09
2023-03-16T05:53:52.423Z,3.99
2023-03-16T05:54:52.457Z,3.73
2023-03-16T05:55:52.450Z,3.99
2023-03-16T05:56:52.454Z,4.10
2023-03-16T05:57:52.456Z,4.04
2023-03-16T05:58:52.495Z,3.92
2023-03-16T05:59:52.526Z,3.94
2023-03-16T06:00:52.564Z,3.92
2023-03-16T06:01:52.560Z,3.91
2023-03-16T06:02:52.688Z,4.04
2023-03-16T06:03:52.692Z,4.24
2023-03-16T06:04:52.665Z,4.14
2023-03-16T06:05:52.701Z,4.13
2023-03-16T06:06:52.752Z,4.24
2023-03-16T06:07:52.819Z,4.43
2023-03-16T06:08:52.871Z,4.30
2023-03-16T06:09:52.906Z,4.04
2023-03-16T06:10:52.977Z,3.96
2023-03-16T06:11:52.996Z,4.24
2023-03-16T06:12:53.036Z,4.45
2023-03-16T06:13:53.121Z,4.36
2023-03-16T06:14:53.172Z,4.31
2023-03-16T06:15:53.341Z,4.46
2023-03-16T06:16:53.259Z,4.40
2023-03-16T06:17:53.283Z,4.31
2023-03-16T06:18:53.331Z,4.52
2023-03-16T06:19:53.339Z,4.24
2023-03-16T06:20:53.351Z,4.07
2023-03-16T06:21:53.463Z,4.18
2023-03-16T06:22:53.478Z,4.39
2023-03-16T06:23:53.518Z,4.28
2023-03-16T06:24:53.559Z,4.25
2023-03-16T06:25:53.548Z,4.25
2023-03-16T06:26:53.564Z,4.14
2023-03-16T06:27:53.615Z,4.34
2023-03-16T06:28:53.620Z,4.18
2023-03-16T06:29:53.692Z,4.45
2023-03-16T06:30:53.743Z,4.28
2023-03-16T06:31:53.867Z,4.46
2023-03-16T06:32:53.801Z,4.39
2023-03-16T06:33:53.782Z,4.56
2023-03-16T06:34:53.803Z,4.43
2023-03-16T06:35:53.868Z,4.70
2023-03-16T06:36:53.813Z,4.58
2023-03-16T06:37:53.882Z,4.38
2023-03-16T06:38:53.885Z,4.46
2023-03-16T06:39:53.962Z,4.40
2023-03-16T06:40:54.054Z,4.52
2023-03-16T06:41:54.043Z,4.25
2023-03-16T06:42:54.092Z,4.24
2023-03-16T06:43:54.157Z,4.42
2023-03-16T06:44:54.165Z,4.25
2023-03-16T06:45:54.237Z,4.45
2023-03-16T06:46:54.222Z,4.75
2023-03-16T06:47:55.110Z,4.76
2023-03-16T06:48:54.305Z,4.84
2023-03-16T06:49:54.346Z,5.02
2023-03-16T06:50:54.375Z,4.71
2023-03-16T06:51:54.421Z,4.71
2023-03-16T06:52:54.536Z,4.71
2023-03-16T06:53:54.440Z,4.75
2023-03-16T06:54:54.466Z,4.97
2023-03-16T06:55:54.507Z,5.05
2023-03-16T06:56:54.591Z,5.19
2023-03-16T06:57:54.598Z,5.19
2023-03-16T06:58:54.606Z,5.04
2023-03-16T06:59:54.705Z,5.12
2023-03-16T07:00:54.804Z,5.37
2023-03-16T07:01:54.679Z,5.29
2023-03-16T07:02:54.680Z,5.29
2023-03-16T07:03:54.750Z,5.54
2023-03-16T07:04:54.676Z,5.44
2023-03-16T07:05:54.689Z,5.59
2023-03-16T07:06:54.686Z,5.69
2023-03-16T07:07:54.695Z,5.67
2023-03-16T07:08:54.700Z,5.49
2023-03-16T07:09:54.666Z,5.67
2023-03-16T07:10:54.716Z,6.09
2023-03-16T07:11:55.606Z,6.44
2023-03-16T07:12:54.788Z,6.34
2023-03-16T07:13:54.942Z,6.34
2023-03-16T07:14:54.882Z,6.49
2023-03-16T07:15:54.936Z,6.39
2023-03-16T07:16:55.028Z,6.64
2023-03-16T07:17:55.078Z,6.57
2023-03-16T07:18:55.755Z,6.50
2023-03-16T07:19:55.235Z,6.60
2023-03-16T07:20:55.248Z,6.86
2023-03-16T07:21:55.268Z,7.03
2023-03-16T07:22:56.181Z,7.00
2023-03-16T07:23:58.045Z,6.74
2023-03-16T07:24:55.408Z,7.29
2023-03-16T07:25:55.467Z,7.26
2023-03-16T07:26:55.487Z,7.47
2023-03-16T07:27:55.511Z,8.20
2023-03-16T07:28:57.999Z,8.17
2023-03-16T07:29:55.487Z,7.72
2023-03-16T07:31:03.497Z,7.19
2023-03-16T07:31:55.610Z,7.22
2023-03-16T07:32:55.626Z,7.47
2023-03-16T07:33:55.628Z,7.47
2023-03-16T07:34:58.119Z,7.33
2023-03-16T07:35:55.676Z,7.15
2023-03-16T07:36:55.709Z,7.19
2023-03-16T07:37:55.736Z,7.29
2023-03-16T07:38:55.732Z,7.04
2023-03-16T07:39:55.731Z,7.00
2023-03-16T07:40:55.757Z,7.00
2023-03-16T07:41:55.770Z,7.05
2023-03-16T07:42:55.911Z,6.95
2023-03-16T07:43:55.811Z,6.83
2023-03-16T07:44:56.718Z,6.77
2023-03-16T07:45:55.927Z,6.50
2023-03-16T07:46:55.903Z,6.75
2023-03-16T07:47:55.942Z,6.77
2023-03-16T07:48:55.996Z,7.03
2023-03-16T07:49:56.060Z,7.10
2023-03-16T07:50:55.970Z,7.05
2023-03-16T07:51:55.996Z,6.64
2023-03-16T07:52:56.033Z,6.72
2023-03-16T07:53:56.063Z,6.68
2023-03-16T07:54:56.118Z,6.56
2023-03-16T07:55:56.170Z,6.92
2023-03-16T07:56:56.217Z,7.05
2023-03-16T07:57:56.274Z,7.08
2023-03-16T07:58:56.331Z,7.04
2023-03-16T07:59:56.390Z,6.95
2023-03-16T08:00:56.384Z,7.43
2023-03-16T08:01:56.375Z,7.40
2023-03-16T08:02:56.400Z,7.19
2023-03-16T08:03:57.988Z,7.29
2023-03-16T08:04:57.422Z,7.46
2023-03-16T08:05:56.576Z,7.64
2023-03-16T08:06:56.608Z,7.61
2023-03-16T08:07:56.587Z,7.53
2023-03-16T08:08:56.636Z,7.21
2023-03-16T08:09:56.706Z,7.21
2023-03-16T08:10:56.946Z,7.47
2023-03-16T08:11:56.820Z,7.74
2023-03-16T08:12:57.449Z,7.59
2023-03-16T08:13:56.843Z,7.46
2023-03-16T08:14:56.844Z,7.26
2023-03-16T08:15:56.977Z,7.29
2023-03-16T08:16:56.911Z,7.59
2023-03-16T08:17:57.852Z,8.03
2023-03-16T08:18:56.967Z,7.70
2023-03-16T08:19:56.992Z,7.96
2023-03-16T08:20:57.775Z,8.06
2023-03-16T08:22:01.381Z,8.09
2023-03-16T08:22:57.134Z,8.56
2023-03-16T08:23:57.059Z,8.86
2023-03-16T08:24:57.108Z,8.79
2023-03-16T08:25:57.154Z,9.05
2023-03-16T08:26:57.095Z,8.82
2023-03-16T08:27:57.153Z,9.24
2023-03-16T08:28:57.262Z,8.74
2023-03-16T08:29:57.283Z,8.86
2023-03-16T08:30:57.396Z,9.22
2023-03-16T08:31:57.395Z,9.37
2023-03-16T08:32:57.527Z,9.16
2023-03-16T08:33:57.497Z,9.30
2023-03-16T08:34:57.555Z,9.44
2023-03-16T08:35:57.578Z,9.12
2023-03-16T08:36:57.569Z,8.59
2023-03-16T08:37:57.562Z,8.03
2023-03-16T08:39:06.527Z,8.69
2023-03-16T08:39:57.672Z,8.56
2023-03-16T08:40:57.714Z,8.46
2023-03-16T08:41:57.789Z,8.44
2023-03-16T08:42:57.830Z,8.42
2023-03-16T08:43:57.872Z,8.27
2023-03-16T08:44:57.901Z,8.54
2023-03-16T08:45:57.930Z,8.82
2023-03-16T08:46:58.014Z,8.90
2023-03-16T08:47:58.051Z,9.30
2023-03-16T08:48:58.085Z,9.40
2023-03-16T08:49:58.160Z,9.76
2023-03-16T08:50:58.167Z,9.64
2023-03-16T08:51:58.182Z,9.44
2023-03-16T08:52:58.231Z,9.67
2023-03-16T08:53:58.280Z,8.93
2023-03-16T08:55:03.550Z,8.38
2023-03-16T08:55:58.282Z,8.53
2023-03-16T08:56:58.340Z,8.36
2023-03-16T08:57:58.377Z,8.45
2023-03-16T08:58:58.365Z,8.08
2023-03-16T08:59:58.448Z,7.95
2023-03-16T09:00:58.442Z,8.16
2023-03-16T09:01:58.521Z,8.42
2023-03-16T09:02:58.493Z,8.63
2023-03-16T09:03:58.649Z,9.33
2023-03-16T09:04:58.610Z,9.21
2023-03-16T09:05:58.642Z,9.31
2023-03-16T09:07:08.447Z,9.52
2023-03-16T09:07:58.715Z,9.24
2023-03-16T09:08:58.778Z,8.84
2023-03-16T09:09:58.748Z,8.82
2023-03-16T09:10:58.804Z,9.21
2023-03-16T09:11:58.812Z,9.73
2023-03-16T09:12:58.862Z,9.70
2023-03-16T09:13:58.863Z,9.40
2023-03-16T09:14:58.935Z,9.51
2023-03-16T09:15:58.965Z,9.82
2023-03-16T09:16:59.016Z,10.34
2023-03-16T09:17:59.064Z,10.21
2023-03-16T09:18:59.087Z,10.33
2023-03-16T09:20:11.463Z,10.49
2023-03-16T09:21:00.168Z,10.95
2023-03-16T09:21:59.137Z,10.92
2023-03-16T09:22:59.209Z,10.89
2023-03-16T09:23:59.193Z,10.67
2023-03-16T09:24:59.222Z,11.25
2023-03-16T09:25:59.238Z,11.52
2023-03-16T09:26:59.321Z,11.33
2023-03-16T09:27:59.402Z,11.49
2023-03-16T09:28:59.328Z,12.23
2023-03-16T09:29:59.348Z,12.55
2023-03-16T09:30:59.399Z,12.36
2023-03-16T09:31:59.421Z,12.28
2023-03-16T09:32:59.610Z,12.28
2023-03-16T09:33:59.501Z,12.81
2023-03-16T09:34:59.553Z,12.99
2023-03-16T09:35:59.585Z,12.17
2023-03-16T09:36:59.591Z,12.10
2023-03-16T09:38:07.194Z,12.40
2023-03-16T09:38:59.664Z,12.95
2023-03-16T09:40:06.602Z,13.49
2023-03-16T09:40:59.669Z,13.46
2023-03-16T09:41:59.716Z,13.23
2023-03-16T09:42:59.786Z,13.52
2023-03-16T09:43:59.821Z,12.30
2023-03-16T09:44:59.874Z,12.73
2023-03-16T09:46:00.065Z,12.29
2023-03-16T09:46:59.897Z,11.89
2023-03-16T09:47:59.919Z,12.26
2023-03-16T09:49:00.002Z,12.44
2023-03-16T09:50:00.020Z,12.50
2023-03-16T09:51:00.082Z,12.98
2023-03-16T09:52:00.748Z,13.09
2023-03-16T09:53:00.029Z,13.94
2023-03-16T09:54:00.024Z,14.01
2023-03-16T09:55:00.069Z,14.40
2023-03-16T09:56:00.118Z,13.80
2023-03-16T09:57:00.112Z,14.73
2023-03-16T09:58:00.131Z,14.34
2023-03-16T09:59:00.139Z,13.85
2023-03-16T10:00:00.159Z,14.22
2023-03-16T10:01:00.238Z,13.87
2023-03-16T10:02:00.267Z,13.50
2023-03-16T10:03:00.316Z,13.16
2023-03-16T10:04:00.504Z,13.16
2023-03-16T10:05:00.384Z,13.30
2023-03-16T10:06:00.452Z,13.57
2023-03-16T10:07:00.505Z,14.03
2023-03-16T10:08:00.558Z,14.40
2023-03-16T10:09:00.548Z,14.85
2023-03-16T10:10:00.576Z,14.87
2023-03-16T10:11:00.659Z,14.05
2023-03-16T10:12:00.666Z,13.80
2023-03-16T10:13:00.755Z,12.54
2023-03-16T10:14:00.767Z,12.02
2023-03-16T10:15:00.845Z,12.07
2023-03-16T10:16:00.817Z,12.12
2023-03-16T10:17:00.818Z,12.62
2023-03-16T10:18:00.896Z,12.91
2023-03-16T10:19:00.868Z,13.06
2023-03-16T10:20:00.935Z,13.42
2023-03-16T10:21:00.991Z,13.05
2023-03-16T10:22:01.016Z,12.75
2023-03-16T10:23:01.110Z,13.09
2023-03-16T10:24:01.166Z,12.39
2023-03-16T10:25:01.169Z,11.96
2023-03-16T10:26:01.200Z,12.03
2023-03-16T10:27:01.218Z,12.39
2023-03-16T10:28:01.287Z,12.91
2023-03-16T10:29:01.320Z,13.39
2023-03-16T10:30:01.311Z,13.08
2023-03-16T10:31:01.321Z,12.68
2023-03-16T10:32:01.380Z,12.81
2023-03-16T10:33:01.389Z,13.13
2023-03-16T10:34:01.382Z,13.23
2023-03-16T10:35:01.451Z,12.91
2023-03-16T10:36:01.426Z,12.61
2023-03-16T10:37:01.475Z,12.47
2023-03-16T10:38:01.536Z,12.11
2023-03-16T10:39:01.582Z,12.12
2023-03-16T10:40:01.593Z,11.45
2023-03-16T10:41:01.564Z,11.31
2023-03-16T10:42:01.612Z,11.38
2023-03-16T10:43:01.638Z,11.43
2023-03-16T10:44:01.628Z,11.37
2023-03-16T10:45:03.107Z,11.34
2023-03-16T10:46:01.865Z,11.35
2023-03-16T10:47:01.852Z,11.96
2023-03-16T10:48:01.814Z,12.10
2023-03-16T10:49:01.873Z,12.28
2023-03-16T10:50:01.923Z,12.45
2023-03-16T10:51:01.963Z,12.00
2023-03-16T10:52:02.020Z,11.73
2023-03-16T10:53:02.017Z,12.03
2023-03-16T10:54:02.012Z,11.89
2023-03-16T10:55:01.999Z,11.65
2023-03-16T10:56:02.124Z,11.15
2023-03-16T10:57:02.106Z,11.71
2023-03-16T10:58:02.117Z,11.12
2023-03-16T10:59:02.130Z,11.59
2023-03-16T11:00:02.137Z,11.62
2023-03-16T11:01:02.242Z,11.30
2023-03-16T11:02:02.261Z,11.35
2023-03-16T11:03:02.276Z,11.49
2023-03-16T11:04:02.336Z,11.70
2023-03-16T11:05:02.407Z,11.78
2023-03-16T11:06:02.463Z,11.58
2023-03-16T11:07:02.382Z,11.41
2023-03-16T11:08:02.445Z,11.56
2023-03-16T11:09:02.558Z,11.59
2023-03-16T11:10:02.525Z,11.55
2023-03-16T11:11:02.517Z,11.81
2023-03-16T11:12:02.595Z,11.86
2023-03-16T11:13:02.683Z,11.83
2023-03-16T11:14:02.674Z,11.88
2023-03-16T11:15:02.749Z,11.56
2023-03-16T11:16:02.787Z,11.70
2023-03-16T11:17:02.821Z,11.97
2023-03-16T11:18:02.756Z,12.05
2023-03-16T11:19:02.817Z,12.20
2023-03-16T11:20:02.846Z,11.95
2023-03-16T11:21:02.897Z,12.14
2023-03-16T11:22:02.939Z,12.07
2023-03-16T11:23:02.977Z,11.97
2023-03-16T11:24:03.059Z,11.80
2023-03-16T11:25:03.091Z,12.00
2023-03-16T11:26:03.073Z,12.11
2023-03-16T11:27:03.099Z,12.50
2023-03-16T11:28:03.150Z,12.83
2023-03-16T11:29:03.190Z,13.02
2023-03-16T11:30:03.248Z,13.31
2023-03-16T11:31:03.345Z,12.99
2023-03-16T11:32:03.372Z,12.90
2023-03-16T11:33:03.560Z,12.78
2023-03-16T11:34:03.418Z,12.65
2023-03-16T11:35:03.444Z,12.45
2023-03-16T11:36:03.521Z,12.73
2023-03-16T11:37:03.546Z,12.63
2023-03-16T11:38:03.564Z,12.32
2023-03-16T11:39:03.606Z,12.28
2023-03-16T11:40:03.606Z,12.12
2023-03-16T11:41:03.668Z,12.39
2023-03-16T11:42:03.719Z,12.50
2023-03-16T11:43:03.715Z,12.78
2023-03-16T11:44:03.746Z,12.72
2023-03-16T11:45:03.747Z,12.39
2023-03-16T11:46:03.775Z,12.44
2023-03-16T11:47:03.759Z,12.10
2023-03-16T11:48:03.804Z,11.86
2023-03-16T11:49:03.868Z,12.30
2023-03-16T11:50:03.919Z,12.40
2023-03-16T11:51:03.967Z,12.57
2023-03-16T11:52:03.982Z,12.20
2023-03-16T11:53:03.977Z,12.23
2023-03-16T11:54:03.995Z,12.29
2023-03-16T11:55:04.009Z,12.11
2023-03-16T11:56:04.033Z,11.97
2023-03-16T11:57:04.106Z,12.02
2023-03-16T11:58:04.162Z,12.02
2023-03-16T11:59:04.161Z,11.71
2023-03-16T12:00:04.225Z,11.96
2023-03-16T12:01:04.218Z,12.33
2023-03-16T12:02:04.297Z,12.35
2023-03-16T12:03:04.354Z,12.35
2023-03-16T12:04:04.468Z,12.30
2023-03-16T12:05:04.365Z,12.40
2023-03-16T12:06:17.027Z,12.50
2023-03-16T12:07:04.425Z,12.32
2023-03-16T12:08:04.478Z,11.95
2023-03-16T12:09:04.609Z,11.74
2023-03-16T12:10:04.614Z,11.99
2023-03-16T12:11:04.682Z,11.80
2023-03-16T12:12:04.718Z,11.52
2023-03-16T12:13:04.757Z,11.59
2023-03-16T12:14:04.784Z,11.68
2023-03-16T12:15:04.854Z,11.89
2023-03-16T12:16:04.882Z,12.21
2023-03-16T12:17:04.953Z,12.11
2023-03-16T12:18:04.937Z,12.23
2023-03-16T12:19:04.984Z,12.35
2023-03-16T12:20:05.035Z,12.20
2023-03-16T12:21:05.016Z,11.70
2023-03-16T12:22:05.074Z,11.37
2023-03-16T12:23:05.054Z,11.40
2023-03-16T12:24:05.123Z,11.26
2023-03-16T12:25:05.155Z,11.27
2023-03-16T12:26:05.196Z,11.60
2023-03-16T12:27:05.206Z,11.48
2023-03-16T12:28:05.238Z,11.55
2023-03-16T12:29:05.287Z,11.52
2023-03-16T12:30:05.310Z,11.67
2023-03-16T12:31:05.322Z,11.34
2023-03-16T12:32:05.348Z,11.56
2023-03-16T12:33:05.428Z,11.45
2023-03-16T12:34:05.439Z,11.41
2023-03-16T12:35:05.469Z,11.68
2023-03-16T12:36:05.540Z,11.60
2023-03-16T12:37:05.595Z,11.35
2023-03-16T12:38:05.610Z,11.33
2023-03-16T12:39:05.667Z,11.48
2023-03-16T12:40:05.692Z,11.49
2023-03-16T12:41:05.730Z,11.56
2023-03-16T12:42:05.783Z,11.25
2023-03-16T12:43:05.831Z,11.48
2023-03-16T12:44:05.918Z,11.76
2023-03-16T12:45:05.889Z,11.81
2023-03-16T12:46:05.984Z,11.25
2023-03-16T12:47:05.959Z,11.53
2023-03-16T12:48:06.041Z,11.89
2023-03-16T12:49:06.021Z,12.26
2023-03-16T12:50:06.096Z,11.85
2023-03-16T12:51:06.143Z,11.71
2023-03-16T12:52:06.146Z,12.20
2023-03-16T12:53:06.184Z,12.36
2023-03-16T12:54:06.228Z,12.84
2023-03-16T12:55:06.235Z,13.08
2023-03-16T12:56:06.284Z,12.84
2023-03-16T12:57:06.322Z,12.45
2023-03-16T12:58:06.517Z,12.55
2023-03-16T12:59:06.377Z,12.72
2023-03-16T13:00:06.412Z,12.90
2023-03-16T13:01:06.446Z,13.24
2023-03-16T13:02:06.486Z,13.39
2023-03-16T13:03:06.516Z,13.80
2023-03-16T13:04:06.610Z,13.37
2023-03-16T13:05:06.578Z,13.45
2023-03-16T13:06:06.597Z,13.26
2023-03-16T13:07:06.660Z,13.46
2023-03-16T13:08:06.704Z,13.43
2023-03-16T13:09:06.751Z,13.61
2023-03-16T13:10:06.771Z,13.91
2023-03-16T13:11:06.840Z,14.40